createdAt,value
2023-05-19T00:01:49.194Z,88.01
2023-05-19T00:04:16.520Z,87.53
2023-05-19T00:06:46.628Z,88.93
2023-05-19T00:09:13.220Z,89.06
2023-05-19T00:11:40.396Z,88.52
2023-05-19T00:14:09.344Z,87.34
2023-05-19T00:16:37.966Z,89.33
2023-05-19T00:19:05.905Z,89.09
2023-05-19T00:21:32.862Z,89.60
2023-05-19T00:23:59.265Z,89.37
2023-05-19T00:26:26.959Z,89.63
2023-05-19T00:28:54.008Z,89.74
2023-05-19T00:31:20.517Z,90.15
2023-05-19T00:33:46.976Z,89.52
2023-05-19T00:36:13.495Z,89.08
2023-05-19T00:38:39.936Z,89.63
2023-05-19T00:41:07.252Z,90.21
2023-05-19T00:43:36.917Z,89.76
2023-05-19T00:46:03.942Z,90.29
2023-05-19T00:48:30.388Z,89.70
2023-05-19T00:51:04.219Z,90.87
2023-05-19T00:53:33.392Z,89.78
2023-05-19T00:56:00.857Z,90.65
2023-05-19T00:58:30.488Z,91.36
2023-05-19T01:01:03.341Z,91.80
2023-05-19T01:03:35.616Z,92.29
2023-05-19T01:06:05.578Z,91.98
2023-05-19T01:08:33.447Z,91.87
2023-05-19T01:11:00.197Z,93.61
2023-05-19T01:13:28.467Z,92.40
2023-05-19T01:16:32.272Z,92.94
2023-05-19T01:19:14.295Z,93.16
2023-05-19T01:22:02.281Z,92.59
2023-05-19T01:24:54.918Z,92.98
2023-05-19T01:27:34.172Z,93.10
2023-05-19T01:30:19.176Z,92.58
2023-05-19T01:32:47.890Z,93.02
2023-05-19T01:35:16.417Z,92.65
2023-05-19T01:37:45.277Z,92.50
2023-05-19T01:40:12.124Z,93.27
2023-05-19T01:42:41.247Z,92.48
2023-05-19T01:45:11.527Z,92.89
2023-05-19T01:47:41.683Z,93.38
2023-05-19T01:50:08.648Z,94.43
2023-05-19T01:52:35.298Z,93.92
2023-05-19T01:55:01.858Z,93.91
2023-05-19T01:57:28.175Z,93.76
2023-05-19T02:00:33.213Z,94.01
2023-05-19T02:03:26.469Z,93.98
2023-05-19T02:06:03.262Z,94.78
2023-05-19T02:08:54.749Z,94.25
2023-05-19T02:11:38.043Z,93.69
2023-05-19T02:14:34.009Z,94.13
2023-05-19T02:17:00.862Z,94.39
2023-05-19T02:19:29.288Z,94.52
2023-05-19T02:21:56.390Z,94.87
2023-05-19T02:24:23.160Z,95.04
2023-05-19T02:26:51.810Z,95.38
2023-05-19T02:29:18.899Z,95.08
2023-05-19T02:31:45.369Z,95.55
2023-05-19T02:34:12.069Z,94.89
2023-05-19T02:36:43.405Z,95.87
2023-05-19T02:39:11.077Z,95.84
2023-05-19T02:41:38.327Z,95.69
2023-05-19T02:44:05.025Z,96.10
2023-05-19T02:46:31.470Z,96.21
2023-05-19T02:48:57.920Z,96.04
2023-05-19T02:51:24.471Z,96.11
2023-05-19T02:53:51.008Z,97.13
2023-05-19T02:56:17.465Z,96.41
2023-05-19T02:58:43.854Z,95.56
2023-05-19T03:01:11.068Z,96.77
2023-05-19T03:03:37.578Z,96.98
2023-05-19T03:06:04.891Z,97.58
2023-05-19T03:08:31.277Z,97.01
2023-05-19T03:10:57.677Z,97.42
2023-05-19T03:13:24.111Z,96.77
2023-05-19T03:15:51.169Z,96.49
2023-05-19T03:18:17.765Z,96.77
2023-05-19T03:20:44.681Z,97.44
2023-05-19T03:23:11.195Z,97.10
2023-05-19T03:25:37.626Z,97.54
2023-05-19T03:28:04.180Z,98.04
2023-05-19T03:30:30.751Z,98.78
2023-05-19T03:32:57.348Z,98.80
2023-05-19T03:35:23.785Z,99.05
2023-05-19T03:37:50.187Z,98.45
2023-05-19T03:40:18.753Z,98.68
2023-05-19T03:42:45.236Z,98.92
2023-05-19T03:45:11.722Z,98.52
2023-05-19T03:47:38.208Z,99.18
2023-05-19T03:50:05.035Z,98.94
2023-05-19T03:52:31.444Z,99.74
2023-05-19T03:54:58.655Z,99.09
2023-05-19T03:57:25.182Z,99.30
2023-05-19T03:59:51.570Z,99.22
2023-05-19T04:02:18.064Z,99.69
2023-05-19T04:04:44.619Z,99.87
2023-05-19T04:07:11.689Z,99.29
2023-05-19T04:09:38.949Z,99.17
2023-05-19T04:12:05.819Z,99.61
2023-05-19T04:14:32.233Z,100.00
2023-05-19T04:16:58.900Z,100.00
2023-05-19T04:19:25.590Z,100.00
2023-05-19T04:21:52.025Z,100.00
2023-05-19T04:24:18.420Z,100.00
2023-05-19T04:26:47.027Z,99.50
2023-05-19T04:29:17.831Z,99.28
2023-05-19T04:31:47.033Z,99.43
2023-05-19T04:34:13.485Z,98.51
2023-05-19T04:36:39.878Z,98.41
2023-05-19T04:39:09.269Z,97.81
2023-05-19T04:41:35.804Z,97.12
2023-05-19T04:44:02.244Z,96.19
2023-05-19T04:46:29.826Z,95.27
2023-05-19T04:48:57.159Z,96.08
2023-05-19T04:51:29.743Z,94.07
2023-05-19T04:53:59.745Z,92.08
2023-05-19T04:56:27.378Z,91.33
2023-05-19T04:58:53.855Z,88.24
2023-05-19T05:01:22.611Z,87.80
2023-05-19T05:03:49.315Z,85.75
2023-05-19T05:06:16.272Z,85.09
2023-05-19T05:08:42.686Z,86.25
2023-05-19T05:11:09.525Z,85.22
2023-05-19T05:13:36.292Z,83.08
2023-05-19T05:16:06.421Z,81.24
2023-05-19T05:18:33.715Z,82.97
2023-05-19T05:21:00.696Z,81.22
2023-05-19T05:23:27.779Z,80.62
2023-05-19T05:25:54.448Z,78.38
2023-05-19T05:28:20.963Z,78.84
2023-05-19T05:30:47.431Z,77.74
2023-05-19T05:33:14.013Z,77.07
2023-05-19T05:35:40.745Z,76.75
2023-05-19T05:38:07.257Z,76.43
2023-05-19T05:40:33.751Z,76.00
2023-05-19T05:43:00.169Z,74.61
2023-05-19T05:45:26.765Z,74.33
2023-05-19T05:47:53.543Z,71.86
2023-05-19T05:50:20.322Z,71.58
2023-05-19T05:52:47.908Z,69.49
2023-05-19T05:55:17.631Z,70.41
2023-05-19T05:57:44.099Z,68.26
2023-05-19T06:00:15.394Z,68.75
2023-05-19T06:02:46.464Z,66.75
2023-05-19T06:05:13.956Z,66.05
2023-05-19T06:07:41.137Z,65.27
2023-05-19T06:10:08.956Z,66.06
2023-05-19T06:12:36.152Z,64.24
2023-05-19T06:15:04.151Z,61.78
2023-05-19T06:17:30.616Z,61.96
2023-05-19T06:19:57.276Z,61.07
2023-05-19T06:22:23.678Z,60.32
2023-05-19T06:24:50.079Z,58.38
2023-05-19T06:27:16.539Z,57.91
2023-05-19T06:29:42.975Z,56.33
2023-05-19T06:32:09.392Z,57.67
2023-05-19T06:34:35.905Z,56.21
2023-05-19T06:37:02.405Z,56.77
2023-05-19T06:39:28.921Z,56.80
2023-05-19T06:41:55.413Z,55.87
2023-05-19T06:44:22.535Z,55.00
2023-05-19T06:46:48.998Z,53.98
2023-05-19T06:49:15.649Z,54.63
2023-05-19T06:51:42.055Z,54.24
2023-05-19T06:54:10.954Z,54.00
2023-05-19T06:56:37.397Z,54.09
2023-05-19T06:59:04.111Z,54.62
2023-05-19T07:01:30.955Z,54.89
2023-05-19T07:03:57.551Z,54.62
2023-05-19T07:06:24.038Z,55.05
2023-05-19T07:08:50.472Z,56.05
2023-05-19T07:11:17.445Z,54.81
2023-05-19T07:13:43.961Z,56.10
2023-05-19T07:16:10.627Z,55.64
2023-05-19T07:18:37.203Z,55.54
2023-05-19T07:21:03.795Z,55.66
2023-05-19T07:23:30.189Z,53.88
2023-05-19T07:25:56.767Z,55.89
2023-05-19T07:28:23.476Z,56.74
2023-05-19T07:30:50.001Z,58.56
2023-05-19T07:33:16.501Z,58.55
2023-05-19T07:35:43.014Z,57.80
2023-05-19T07:38:09.408Z,58.40
2023-05-19T07:40:35.819Z,58.15
2023-05-19T07:43:02.204Z,58.16
2023-05-19T07:45:28.671Z,56.43
2023-05-19T07:47:55.172Z,58.23
2023-05-19T07:50:22.091Z,59.02
2023-05-19T07:52:48.565Z,59.16
2023-05-19T07:55:15.089Z,60.29
2023-05-19T07:57:41.508Z,61.19
2023-05-19T08:00:09.987Z,60.65
2023-05-19T08:02:36.463Z,60.22
2023-05-19T08:05:03.196Z,60.58
2023-05-19T08:07:29.598Z,60.87
2023-05-19T08:09:56.009Z,61.28
2023-05-19T08:12:22.456Z,60.94
2023-05-19T08:14:48.892Z,60.47
2023-05-19T08:17:15.318Z,61.93
2023-05-19T08:19:41.756Z,60.26
2023-05-19T08:22:08.145Z,59.10
2023-05-19T08:24:34.580Z,59.55
2023-05-19T08:27:01.013Z,59.91
2023-05-19T08:29:27.484Z,60.94
2023-05-19T08:31:54.182Z,61.84
2023-05-19T08:34:20.801Z,60.33
2023-05-19T08:36:47.643Z,62.25
2023-05-19T08:39:16.154Z,61.67
2023-05-19T08:41:42.598Z,62.39
2023-05-19T08:44:09.333Z,62.20
2023-05-19T08:46:36.334Z,59.00
2023-05-19T08:49:08.716Z,55.10
2023-05-19T08:51:54.380Z,53.00
2023-05-19T08:54:25.547Z,53.43
2023-05-19T08:56:52.128Z,52.25
2023-05-19T08:59:19.526Z,51.85
2023-05-19T09:01:46.940Z,50.64
2023-05-19T09:04:14.215Z,51.68
2023-05-19T09:06:41.067Z,50.47
2023-05-19T09:09:08.495Z,50.57
2023-05-19T09:11:37.475Z,49.19
2023-05-19T09:14:05.111Z,51.24
2023-05-19T09:16:32.909Z,51.24
2023-05-19T09:19:01.093Z,51.50
2023-05-19T09:21:31.726Z,51.74
2023-05-19T09:24:04.039Z,49.65
2023-05-19T09:26:38.660Z,49.73
2023-05-19T09:29:12.589Z,48.96
2023-05-19T09:31:39.331Z,49.83
2023-05-19T09:34:12.712Z,50.05
2023-05-19T09:36:41.434Z,48.75
2023-05-19T09:39:14.923Z,50.60
2023-05-19T09:41:41.719Z,48.57
2023-05-19T09:44:12.332Z,48.89
2023-05-19T09:46:38.811Z,48.03
2023-05-19T09:49:09.589Z,47.38
2023-05-19T09:51:39.428Z,48.59
2023-05-19T09:54:05.877Z,47.16
2023-05-19T09:56:34.795Z,49.14
2023-05-19T09:59:03.501Z,50.35
2023-05-19T10:01:33.695Z,48.24
2023-05-19T10:04:00.815Z,47.17
2023-05-19T10:06:27.372Z,48.03
2023-05-19T10:08:54.624Z,47.94
2023-05-19T10:11:23.182Z,47.49
2023-05-19T10:13:51.372Z,47.03
2023-05-19T10:16:21.819Z,48.30
2023-05-19T10:18:51.448Z,48.88
2023-05-19T10:21:18.291Z,46.43
2023-05-19T10:23:44.696Z,48.30
2023-05-19T10:26:12.556Z,45.79
2023-05-19T10:28:43.164Z,48.08
2023-05-19T10:31:16.813Z,49.14
2023-05-19T10:33:46.017Z,48.97
2023-05-19T10:36:37.931Z,47.40
2023-05-19T10:39:07.592Z,47.22
2023-05-19T10:42:06.088Z,45.26
2023-05-19T10:45:06.929Z,42.16
2023-05-19T10:47:34.923Z,43.07
2023-05-19T10:50:01.441Z,44.18
2023-05-19T10:52:30.905Z,45.16
2023-05-19T10:54:58.283Z,44.96
2023-05-19T10:57:28.350Z,42.68
2023-05-19T10:59:57.246Z,43.71
2023-05-19T11:02:43.851Z,46.78
2023-05-19T11:05:12.708Z,43.32
2023-05-19T11:07:42.558Z,45.70
2023-05-19T11:10:09.327Z,45.03
2023-05-19T11:12:44.922Z,45.56
2023-05-19T11:15:15.687Z,42.44
2023-05-19T11:17:45.098Z,43.44
2023-05-19T11:20:28.832Z,45.63
2023-05-19T11:23:06.877Z,43.53
2023-05-19T11:25:51.262Z,44.54
2023-05-19T11:28:27.914Z,46.34
2023-05-19T11:30:57.353Z,43.32
2023-05-19T11:33:27.366Z,42.89
2023-05-19T11:35:58.094Z,44.48
2023-05-19T11:38:24.672Z,44.72
2023-05-19T11:40:54.921Z,43.40
2023-05-19T11:43:25.587Z,43.69
2023-05-19T11:45:54.268Z,42.85
2023-05-19T11:48:22.235Z,43.24
2023-05-19T11:50:48.882Z,44.27
2023-05-19T11:53:16.684Z,44.08
2023-05-19T11:55:46.129Z,45.18
2023-05-19T11:58:12.848Z,43.18
2023-05-19T12:00:41.598Z,43.85
2023-05-19T12:03:08.878Z,45.31
2023-05-19T12:05:44.497Z,45.99
2023-05-19T12:08:11.897Z,45.30
2023-05-19T12:10:39.509Z,45.87
2023-05-19T12:13:09.518Z,43.84
2023-05-19T12:15:36.641Z,43.54
2023-05-19T12:18:03.462Z,44.10
2023-05-19T12:20:32.429Z,44.31
2023-05-19T12:23:00.195Z,45.11
2023-05-19T12:25:26.685Z,44.82
2023-05-19T12:27:58.229Z,44.69
2023-05-19T12:30:26.798Z,43.16
2023-05-19T12:32:54.354Z,42.92
2023-05-19T12:35:23.239Z,44.42
2023-05-19T12:37:50.544Z,45.36
2023-05-19T12:40:17.514Z,44.79
2023-05-19T12:42:48.677Z,45.24
2023-05-19T12:45:15.320Z,44.11
2023-05-19T12:47:41.864Z,44.79
2023-05-19T12:50:09.919Z,45.35
2023-05-19T12:52:47.608Z,44.59
2023-05-19T12:55:16.385Z,45.43
2023-05-19T12:57:52.762Z,46.48
2023-05-19T13:00:21.877Z,47.44
2023-05-19T13:03:07.615Z,45.95
2023-05-19T13:05:38.401Z,45.70
2023-05-19T13:08:06.044Z,47.88
2023-05-19T13:10:33.979Z,46.40
2023-05-19T13:13:01.113Z,46.57
2023-05-19T13:15:31.680Z,45.08
2023-05-19T13:17:58.269Z,45.99
2023-05-19T13:20:27.651Z,45.86
2023-05-19T13:22:55.879Z,45.93
2023-05-19T13:25:22.456Z,45.58
2023-05-19T13:27:49.312Z,45.31
2023-05-19T13:30:18.595Z,46.71
2023-05-19T13:32:45.840Z,44.78
2023-05-19T13:35:13.841Z,45.22
2023-05-19T13:37:42.020Z,44.80
2023-05-19T13:40:09.430Z,45.44
2023-05-19T13:42:36.231Z,46.03
2023-05-19T13:45:03.255Z,46.16
2023-05-19T13:47:29.997Z,46.15
2023-05-19T13:49:56.613Z,45.66
2023-05-19T13:52:23.174Z,46.32
2023-05-19T13:54:49.977Z,47.14
2023-05-19T13:57:16.896Z,47.64
2023-05-19T13:59:57.696Z,48.00
2023-05-19T14:02:28.020Z,47.66
2023-05-19T14:04:54.630Z,47.29
2023-05-19T14:07:21.258Z,49.05
2023-05-19T14:09:47.750Z,47.66
2023-05-19T14:12:14.178Z,48.03
2023-05-19T14:14:40.696Z,48.46
2023-05-19T14:17:07.117Z,49.30
2023-05-19T14:19:33.538Z,48.23
2023-05-19T14:22:00.221Z,49.12
2023-05-19T14:24:26.630Z,48.46
2023-05-19T14:26:53.755Z,48.97
2023-05-19T14:29:20.340Z,47.84
2023-05-19T14:31:47.173Z,48.25
2023-05-19T14:34:17.722Z,48.54
2023-05-19T14:36:44.719Z,49.40
2023-05-19T14:39:11.906Z,48.29
2023-05-19T14:41:38.332Z,48.39
2023-05-19T14:44:05.575Z,48.90
2023-05-19T14:46:32.052Z,48.43
2023-05-19T14:48:58.548Z,49.65
2023-05-19T14:51:24.952Z,49.68
2023-05-19T14:53:51.357Z,50.38
2023-05-19T14:56:17.741Z,47.94
2023-05-19T14:58:44.169Z,48.79
2023-05-19T15:01:10.675Z,49.10
2023-05-19T15:03:37.139Z,47.68
2023-05-19T15:06:03.728Z,49.58
2023-05-19T15:08:30.148Z,51.19
2023-05-19T15:10:56.580Z,50.37
2023-05-19T15:13:23.036Z,49.70
2023-05-19T15:15:58.884Z,50.73
2023-05-19T15:18:31.383Z,50.90
2023-05-19T15:20:57.792Z,51.14
2023-05-19T15:23:24.240Z,50.52
2023-05-19T15:25:50.751Z,51.42
2023-05-19T15:28:17.166Z,51.36
2023-05-19T15:30:45.063Z,51.43
2023-05-19T15:33:12.226Z,50.36
2023-05-19T15:35:38.961Z,51.44
2023-05-19T15:38:06.367Z,50.79
2023-05-19T15:40:33.501Z,51.73
2023-05-19T15:43:00.586Z,50.58
2023-05-19T15:45:27.043Z,50.22
2023-05-19T15:47:53.692Z,50.75
2023-05-19T15:50:20.170Z,51.66
2023-05-19T15:52:47.671Z,50.59
2023-05-19T15:55:14.091Z,49.89
2023-05-19T15:57:40.498Z,50.57
2023-05-19T16:00:07.753Z,49.93
2023-05-19T16:02:34.404Z,50.91
2023-05-19T16:05:00.848Z,51.08
2023-05-19T16:07:27.302Z,51.98
2023-05-19T16:09:53.741Z,51.67
2023-05-19T16:12:20.252Z,51.43
2023-05-19T16:14:46.712Z,50.80
2023-05-19T16:17:13.831Z,50.52
2023-05-19T16:19:40.263Z,51.35
2023-05-19T16:22:06.726Z,50.21
2023-05-19T16:24:33.163Z,51.84
2023-05-19T16:26:59.588Z,50.48
2023-05-19T16:29:26.014Z,50.75
2023-05-19T16:31:52.534Z,50.62
2023-05-19T16:34:19.005Z,51.50
2023-05-19T16:36:45.427Z,51.69
2023-05-19T16:39:11.851Z,51.74
2023-05-19T16:41:38.279Z,51.83
2023-05-19T16:44:04.856Z,51.22
2023-05-19T16:46:31.766Z,51.01
2023-05-19T16:48:58.300Z,52.42
2023-05-19T16:51:24.708Z,51.11
2023-05-19T16:53:51.199Z,51.30
2023-05-19T16:56:17.618Z,51.12
2023-05-19T16:58:44.114Z,51.29
2023-05-19T17:01:11.916Z,51.62
2023-05-19T17:03:38.383Z,51.67
2023-05-19T17:06:04.873Z,51.46
2023-05-19T17:08:31.353Z,50.74
2023-05-19T17:10:57.749Z,50.21
2023-05-19T17:13:24.245Z,49.60
2023-05-19T17:15:53.501Z,50.48
2023-05-19T17:18:19.899Z,49.86
2023-05-19T17:20:46.357Z,49.52
2023-05-19T17:23:12.815Z,48.92
2023-05-19T17:25:39.225Z,49.41
2023-05-19T17:28:05.719Z,48.92
2023-05-19T17:30:32.360Z,49.75
2023-05-19T17:32:59.368Z,49.28
2023-05-19T17:35:28.284Z,50.71
2023-05-19T17:37:55.102Z,49.48
2023-05-19T17:40:21.567Z,48.06
2023-05-19T17:42:48.001Z,49.58
2023-05-19T17:45:14.487Z,48.81
2023-05-19T17:47:40.968Z,49.92
2023-05-19T17:50:07.796Z,48.37
2023-05-19T17:52:34.521Z,48.62
2023-05-19T17:55:01.188Z,49.43
2023-05-19T17:57:31.145Z,47.69
2023-05-19T17:59:57.886Z,48.55
2023-05-19T18:02:24.537Z,48.00
2023-05-19T18:04:51.212Z,49.76
2023-05-19T18:07:18.155Z,48.42
2023-05-19T18:09:46.404Z,48.95
2023-05-19T18:12:12.916Z,48.48
2023-05-19T18:14:39.726Z,48.78
2023-05-19T18:17:06.190Z,49.31
2023-05-19T18:19:32.631Z,49.74
2023-05-19T18:21:59.089Z,49.75
2023-05-19T18:24:25.705Z,51.23
2023-05-19T18:26:52.157Z,49.85
2023-05-19T18:29:18.565Z,50.74
2023-05-19T18:31:45.055Z,50.45
2023-05-19T18:34:11.558Z,51.53
2023-05-19T18:36:37.980Z,52.33
2023-05-19T18:39:04.648Z,51.71
2023-05-19T18:41:31.973Z,53.50
2023-05-19T18:43:58.440Z,53.18
2023-05-19T18:46:24.942Z,52.83
2023-05-19T18:48:51.432Z,52.51
2023-05-19T18:51:18.603Z,53.12
2023-05-19T18:53:46.992Z,53.88
2023-05-19T18:56:15.163Z,53.56
2023-05-19T18:58:41.632Z,53.42
2023-05-19T19:01:08.337Z,53.74
2023-05-19T19:03:34.817Z,54.67
2023-05-19T19:06:01.283Z,54.29
2023-05-19T19:08:27.748Z,55.45
2023-05-19T19:10:59.102Z,55.07
2023-05-19T19:13:25.605Z,54.12
2023-05-19T19:15:52.059Z,55.87
2023-05-19T19:18:18.529Z,56.11
2023-05-19T19:20:44.983Z,55.31
2023-05-19T19:23:11.378Z,55.95
2023-05-19T19:25:37.823Z,55.81
2023-05-19T19:28:04.341Z,55.70
2023-05-19T19:30:30.835Z,56.56
2023-05-19T19:32:57.563Z,56.52
2023-05-19T19:35:24.055Z,56.58
2023-05-19T19:37:51.672Z,56.71
2023-05-19T19:40:18.137Z,56.63
2023-05-19T19:42:44.660Z,56.97
2023-05-19T19:45:12.566Z,57.37
2023-05-19T19:47:41.935Z,57.38
2023-05-19T19:50:09.186Z,58.13
2023-05-19T19:52:35.617Z,58.06
2023-05-19T19:55:02.058Z,57.98
2023-05-19T19:57:29.938Z,58.46
2023-05-19T19:59:59.070Z,58.12
2023-05-19T20:02:25.912Z,57.82
2023-05-19T20:04:52.431Z,58.43
2023-05-19T20:07:20.713Z,58.76
2023-05-19T20:09:47.816Z,59.72
2023-05-19T20:12:14.213Z,57.68
2023-05-19T20:14:40.651Z,57.72
2023-05-19T20:17:07.051Z,57.55
2023-05-19T20:19:33.519Z,57.58
2023-05-19T20:22:00.004Z,57.36
2023-05-19T20:24:26.497Z,57.03
2023-05-19T20:26:52.925Z,58.33
2023-05-19T20:29:19.479Z,57.65
2023-05-19T20:31:46.596Z,57.33
2023-05-19T20:34:13.052Z,57.50
2023-05-19T20:36:39.504Z,57.92
2023-05-19T20:39:06.960Z,57.92
2023-05-19T20:41:33.410Z,57.60
2023-05-19T20:43:59.893Z,58.43
2023-05-19T20:46:26.567Z,57.23
2023-05-19T20:48:53.220Z,58.63
2023-05-19T20:51:19.660Z,58.78
2023-05-19T20:53:46.274Z,58.17
2023-05-19T20:56:13.035Z,59.35
2023-05-19T20:58:39.558Z,58.67
2023-05-19T21:01:06.476Z,58.76
2023-05-19T21:03:32.904Z,59.47
2023-05-19T21:06:00.529Z,58.81
2023-05-19T21:08:26.941Z,59.14
2023-05-19T21:10:53.375Z,59.75
2023-05-19T21:13:19.809Z,59.73
2023-05-19T21:15:46.807Z,59.94
2023-05-19T21:18:13.377Z,59.46
2023-05-19T21:20:40.045Z,60.64
2023-05-19T21:23:06.673Z,60.03
2023-05-19T21:25:33.094Z,59.28
2023-05-19T21:27:59.604Z,59.41
2023-05-19T21:30:26.009Z,60.12
2023-05-19T21:32:52.516Z,59.92
2023-05-19T21:35:19.021Z,60.08
2023-05-19T21:37:45.434Z,59.79
2023-05-19T21:40:12.373Z,60.13
2023-05-19T21:42:38.932Z,61.24
2023-05-19T21:45:06.500Z,60.60
2023-05-19T21:47:32.945Z,60.97
2023-05-19T21:49:59.368Z,61.17
2023-05-19T21:52:25.868Z,61.39
2023-05-19T21:54:52.267Z,60.79
2023-05-19T21:57:18.709Z,60.67
2023-05-19T21:59:45.100Z,61.02
2023-05-19T22:02:11.615Z,60.67
2023-05-19T22:04:38.578Z,61.77
2023-05-19T22:07:06.768Z,61.74
2023-05-19T22:09:33.306Z,61.66
2023-05-19T22:11:59.718Z,61.03
2023-05-19T22:14:26.326Z,61.33
2023-05-19T22:16:52.884Z,61.21
2023-05-19T22:19:19.904Z,62.55
2023-05-19T22:21:46.468Z,61.72
2023-05-19T22:24:12.940Z,62.12
2023-05-19T22:26:42.568Z,62.47
2023-05-19T22:29:12.127Z,62.64
2023-05-19T22:31:38.580Z,63.34
2023-05-19T22:34:05.060Z,63.67
2023-05-19T22:36:31.720Z,63.36
2023-05-19T22:38:58.145Z,64.36
2023-05-19T22:41:24.582Z,63.55
2023-05-19T22:43:51.169Z,63.15
2023-05-19T22:46:17.602Z,63.53
2023-05-19T22:48:44.032Z,64.72
2023-05-19T22:51:10.467Z,63.87
2023-05-19T22:53:36.864Z,64.32
2023-05-19T22:56:03.361Z,64.39
2023-05-19T22:58:29.782Z,65.64
2023-05-19T23:00:56.487Z,65.90
2023-05-19T23:03:23.094Z,66.41
2023-05-19T23:05:49.488Z,66.35
2023-05-19T23:08:15.992Z,66.70
2023-05-19T23:10:42.441Z,66.63
2023-05-19T23:13:10.124Z,66.70
2023-05-19T23:15:36.649Z,67.61
2023-05-19T23:18:07.237Z,67.96
2023-05-19T23:20:34.840Z,68.01
2023-05-19T23:23:01.756Z,68.53
2023-05-19T23:25:28.188Z,69.12
2023-05-19T23:27:54.710Z,68.50
2023-05-19T23:30:21.121Z,71.77
2023-05-19T23:32:47.541Z,70.20
2023-05-19T23:35:16.455Z,70.87
2023-05-19T23:37:42.906Z,71.51
2023-05-19T23:40:10.334Z,72.14
2023-05-19T23:42:37.038Z,71.66
2023-05-19T23:45:04.132Z,71.49
2023-05-19T23:47:30.733Z,70.86
2023-05-19T23:49:57.188Z,71.82
2023-05-19T23:52:23.585Z,71.17
2023-05-19T23:54:50.080Z,72.28
2023-05-19T23:57:16.476Z,72.83
2023-05-19T23:59:43.077Z,72.35
